Petawawa Airport
CYWA : now visible

Airfield :











YOU CAN JOIN US ON...

 
LOGIN :

Register | Disclaimer

   EN    FR    IT 

 









Legend :    VFR   Marginal VFR   IFR   Intensive IFR   Very Intensive IFR
Visi :
Ceiling :
>= 8 km
>= 3000ft
5 to 8 km
1000 to 3000 ft
1500m to 5 km
500 to 1000 ft
800 to 1500m
200 to 500 ft
< 800m
< 200 ft
Symbols :   Thunderstorms  Fog  Heavy snow  Heavy precipitations  Wind > 20 kt






- Airport Elevation : 427 ft
- IATA code : YWA


CYWA - Petawawa

CURRENT METAR :
  • 281800Z AUTO 12004KT 080V140 9SM FEW094 05/M05 A3005 RMK SLP185

EXPIRED METARs :
  • 281700Z AUTO 14002KT 9SM CLR 04/M06 A3008 RMK SLP194
  • 281600Z AUTO 14004KT 9SM CLR 02/M05 A3008 RMK SLP194

TAF TAF CYWA
Valid from the 28 at 18:00 until the 29 at 06:00 UTC


281730Z 2818/2906 12005KT P6SM BKN200
FM290200 10005KT P6SM BKN080 OVC200 RMK FCST BASED ON AUTO OBS. NXT FCST BY 290000Z



MET'MAP, your aeronautical weather chart ! - Copyright ORBIFLY December 2007 - Disclaimer

ORBIFLY MET'MAP TEAM :

Programming & Development : Alexandra Zaïnal
Concept & original design : Baudouin d'Aumeries
Assistance for programming : Marc-Olivier Méhu
Technical & hardware support : Manuel Goepfert

Contact : metmap@orbifly.com




SOURCES & CREDITS :

   NOAA       Earth
Advisory